Time;durP1;ratioP1;P1;durP2;ratioP2;P2;SDS_P1;SDS_P2;PMS_P1;PMS_P2;Temp;Humidity;BMP_temperature;BMP_pressure;BME280_temperature;BME280_humidity;BME280_pressure;Samples;Min_cycle;Max_cycle;Signal;HPM_P1;HPM_P2
2021/10/08 00:03:10;;;;;;;2.10;1.90;;;;;;;18.57;64.49;103158.97;4921038;29;20077;-83
2021/10/08 00:08:58;;;;;;;2.88;2.22;;;;;;;18.58;64.34;103164.22;4921503;29;20100;-83
2021/10/08 00:11:25;;;;;;;2.92;2.15;;;;;;;18.57;64.15;103166.78;4894557;29;20049;-83
2021/10/08 00:13:52;;;;;;;2.60;2.13;;;;;;;18.57;64.25;103167.66;4883027;29;20029;-83
2021/10/08 00:16:18;;;;;;;2.33;1.90;;;;;;;18.55;64.07;103160.66;4882942;29;20040;-83
2021/10/08 00:18:44;;;;;;;2.33;1.80;;;;;;;18.55;64.24;103158.91;4899049;29;20080;-84
2021/10/08 00:21:44;;;;;;;2.40;2.20;;;;;;;18.56;64.17;103163.31;4882357;29;20033;-83
2021/10/08 00:34:16;;;;;;;3.90;2.20;;;;;;;18.52;64.12;103164.09;4921323;29;20053;-83
2021/10/08 00:50:01;;;;;;;2.20;2.00;;;;;;;18.52;64.10;103171.03;4921282;29;20047;-82
2021/10/08 01:06:06;;;;;;;1.98;1.80;;;;;;;18.49;64.04;103183.16;4920909;29;20051;-85
2021/10/08 01:11:26;;;;;;;2.22;1.70;;;;;;;18.51;63.98;103188.41;5019114;23;20051;-83
2021/10/08 01:17:16;;;;;;;2.00;1.80;;;;;;;18.51;64.10;103185.81;4939098;29;20047;-83
2021/10/08 01:29:10;;;;;;;2.13;1.58;;;;;;;18.50;64.24;103191.84;3201474;27;20398;-83
2021/10/08 01:31:38;;;;;;;2.10;1.90;;;;;;;18.48;64.09;103188.31;4916125;29;20021;-85
2021/10/08 01:46:56;;;;;;;2.20;1.60;;;;;;;18.50;63.92;103191.84;4913166;29;20428;-84
2021/10/08 01:49:22;;;;;;;1.95;1.60;;;;;;;18.48;63.96;103189.19;4902508;29;20120;-82
2021/10/08 01:55:32;;;;;;;1.95;1.75;;;;;;;18.45;63.91;103178.69;4919844;29;20105;-83
2021/10/08 02:04:42;;;;;;;1.83;1.60;;;;;;;18.47;63.96;103187.44;4921299;29;20055;-86
2021/10/08 02:17:15;;;;;;;2.25;1.88;;;;;;;18.45;63.84;103180.44;4920487;29;20047;-84
2021/10/08 02:20:42;;;;;;;1.80;1.50;;;;;;;18.46;63.96;103184.78;4904024;29;20045;-83
2021/10/08 02:23:10;;;;;;;1.60;1.50;;;;;;;18.44;63.67;103174.34;4868625;29;20021;-83
2021/10/08 02:25:36;;;;;;;2.00;1.50;;;;;;;18.45;64.04;103185.66;4884085;29;20025;-82
2021/10/08 02:28:03;;;;;;;1.92;1.52;;;;;;;18.45;63.84;103188.25;4891124;29;21205;-83
2021/10/08 02:53:06;;;;;;;2.65;1.50;;;;;;;18.44;63.73;103186.47;4923693;29;20043;-84
2021/10/08 03:12:53;;;;;;;1.40;1.30;;;;;;;18.42;63.91;103209.94;4940657;29;20100;-84
2021/10/08 03:15:59;;;;;;;1.67;1.33;;;;;;;18.41;63.64;103204.66;4909659;29;20039;-83
2021/10/08 03:39:23;;;;;;;1.55;1.35;;;;;;;18.39;63.54;103209.81;4835046;29;20070;-83
2021/10/08 03:46:17;;;;;;;2.05;1.50;;;;;;;18.38;63.55;103201.97;4865648;29;20113;-84
2021/10/08 03:49:12;;;;;;;1.65;1.20;;;;;;;18.38;63.78;103200.25;4863757;29;20054;-84
2021/10/08 04:04:57;;;;;;;1.55;1.20;;;;;;;18.35;63.72;103202.78;4940859;29;20125;-83
2021/10/08 04:07:23;;;;;;;1.58;1.30;;;;;;;18.35;63.63;103201.91;4889137;29;20020;-83
2021/10/08 04:13:10;;;;;;;1.65;1.00;;;;;;;18.34;63.86;103201.03;4930652;29;20035;-81
2021/10/08 05:01:06;;;;;;;2.30;1.40;;;;;;;18.42;63.82;103224.66;4916888;29;20487;-85
2021/10/08 05:29:16;;;;;;;3.13;1.73;;;;;;;18.67;63.92;103228.75;5002911;23;20391;-85
2021/10/08 05:35:13;;;;;;;3.03;1.65;;;;;;;18.69;64.00;103225.34;5073092;23;20052;-85
2021/10/08 05:37:45;;;;;;;4.30;1.42;;;;;;;18.68;63.78;103228.81;4903810;29;20031;-83
2021/10/08 05:46:06;;;;;;;3.35;1.60;;;;;;;18.68;63.81;103239.25;5017218;23;20063;-82
2021/10/08 05:48:31;;;;;;;2.97;1.85;;;;;;;18.66;63.83;103235.72;4912565;29;20024;-87
2021/10/08 05:50:56;;;;;;;4.10;1.70;;;;;;;18.67;63.87;103236.59;4911803;29;20071;-86
2021/10/08 05:53:22;;;;;;;1.83;1.40;;;;;;;18.64;63.89;103233.88;4898056;29;20424;-85
2021/10/08 05:55:47;;;;;;;3.38;1.60;;;;;;;18.65;63.87;103238.28;4894805;29;20032;-86
2021/10/08 05:58:13;;;;;;;3.92;1.52;;;;;;;18.63;63.80;103235.63;4898087;29;20028;-85
2021/10/08 06:00:38;;;;;;;2.63;1.58;;;;;;;18.65;64.07;103244.38;4912019;29;20032;-85
2021/10/08 06:03:04;;;;;;;3.72;1.55;;;;;;;18.64;64.03;103241.72;4898467;29;20055;-86
2021/10/08 06:05:34;;;;;;;3.42;1.40;;;;;;;18.63;63.85;103245.19;4913474;29;20059;-84
2021/10/08 06:08:00;;;;;;;3.65;1.48;;;;;;;18.64;63.89;103245.22;4913002;29;20039;-85
2021/10/08 06:10:25;;;;;;;3.58;1.40;;;;;;;18.63;63.94;103248.66;4915220;29;20032;-84
2021/10/08 06:12:51;;;;;;;2.67;1.50;;;;;;;18.64;63.77;103240.00;4898643;29;20076;-84
2021/10/08 06:15:24;;;;;;;2.13;1.30;;;;;;;18.65;63.80;103251.31;4914446;29;20028;-84
2021/10/08 06:17:49;;;;;;;5.25;1.50;;;;;;;18.64;63.63;103250.44;4911989;29;20083;-84
2021/10/08 06:20:15;;;;;;;4.30;1.60;;;;;;;18.64;63.67;103254.75;4927500;29;20393;-84
2021/10/08 06:22:45;;;;;;;6.18;1.60;;;;;;;18.64;63.53;103253.06;4911462;29;20425;-87
2021/10/08 06:25:12;;;;;;;2.15;1.20;;;;;;;18.66;63.61;103255.66;4927638;29;20428;-84
2021/10/08 06:28:04;;;;;;;4.45;1.85;;;;;;;18.64;63.66;103252.16;4929697;29;20380;-84
2021/10/08 06:30:31;;;;;;;3.33;1.48;;;;;;;18.65;63.44;103259.13;4931705;29;20111;-84
2021/10/08 06:32:56;;;;;;;1.92;1.50;;;;;;;18.65;63.58;103265.22;4897922;29;20028;-84
2021/10/08 06:35:21;;;;;;;1.98;1.30;;;;;;;18.66;63.39;103260.88;4916068;29;20036;-85
2021/10/08 06:37:47;;;;;;;3.10;1.38;;;;;;;18.67;63.23;103262.66;4915273;29;20039;-82
2021/10/08 06:40:12;;;;;;;2.35;1.63;;;;;;;18.67;63.23;103266.16;4898194;29;20044;-86
2021/10/08 06:42:39;;;;;;;2.15;1.27;;;;;;;18.68;63.22;103270.53;4916569;29;20103;-86
2021/10/08 06:45:05;;;;;;;3.85;1.65;;;;;;;18.68;63.34;103272.25;4902609;29;20043;-83
2021/10/08 06:47:31;;;;;;;2.50;1.40;;;;;;;18.69;63.15;103269.69;4894541;29;20024;-84
2021/10/08 06:49:58;;;;;;;2.17;1.50;;;;;;;18.69;63.42;103274.03;4895781;29;20028;-87
2021/10/08 06:52:23;;;;;;;2.97;1.50;;;;;;;18.71;63.08;103280.16;4898429;29;20028;-86
2021/10/08 06:54:49;;;;;;;2.92;1.60;;;;;;;18.70;63.19;103279.28;4909294;29;20604;-84
2021/10/08 06:57:14;;;;;;;3.05;1.40;;;;;;;18.71;63.15;103277.56;4895393;29;20125;-83
2021/10/08 06:59:40;;;;;;;3.53;1.50;;;;;;;18.70;62.98;103287.13;4877611;29;20064;-83
2021/10/08 07:02:05;;;;;;;2.25;1.50;;;;;;;18.70;63.04;103284.50;4875990;29;20397;-83
2021/10/08 07:04:31;;;;;;;1.90;1.38;;;;;;;18.70;63.12;103287.13;4873509;29;20088;-87
2021/10/08 07:06:56;;;;;;;2.70;1.40;;;;;;;18.73;63.31;103285.38;4877014;29;20029;-85
2021/10/08 07:09:22;;;;;;;2.35;1.50;;;;;;;18.70;62.91;103287.13;4877453;29;20036;-86
2021/10/08 07:11:47;;;;;;;3.25;1.65;;;;;;;18.71;63.04;103288.88;4878167;29;20025;-86
2021/10/08 07:14:12;;;;;;;2.85;1.77;;;;;;;18.74;62.94;103295.00;4909128;29;20052;-86
2021/10/08 07:16:38;;;;;;;1.65;1.35;;;;;;;18.75;63.15;103295.03;4892294;29;20044;-87
2021/10/08 07:19:15;;;;;;;2.25;1.67;;;;;;;18.79;62.96;103301.22;4877554;29;20051;-86
2021/10/08 07:21:42;;;;;;;2.05;1.55;;;;;;;18.78;63.05;103297.75;4890776;29;20040;-84
2021/10/08 07:24:09;;;;;;;2.05;1.45;;;;;;;18.79;62.98;103298.63;4892404;29;20477;-85
2021/10/08 07:26:35;;;;;;;7.93;2.35;;;;;;;18.81;63.96;103299.53;4892600;29;20041;-87
2021/10/08 07:29:22;;;;;;;5.07;2.40;;;;;;;18.83;64.35;103305.69;4894061;29;20032;-88
2021/10/08 07:31:48;;;;;;;7.00;2.63;;;;;;;18.82;64.39;103303.94;4890924;29;20068;-87
2021/10/08 07:34:13;;;;;;;8.02;2.20;;;;;;;18.84;64.56;103299.63;4888619;29;20032;-84
2021/10/08 07:36:38;;;;;;;8.50;1.98;;;;;;;18.84;64.37;103303.13;4886417;29;20069;-83
2021/10/08 07:39:04;;;;;;;5.72;2.20;;;;;;;18.87;64.20;103300.56;4886184;29;20080;-86
2021/10/08 07:41:30;;;;;;;3.05;1.88;;;;;;;18.86;64.16;103305.78;4887157;29;20029;-86
2021/10/08 07:43:55;;;;;;;8.52;2.17;;;;;;;18.88;63.93;103309.31;4878176;29;20033;-85
2021/10/08 07:46:20;;;;;;;5.85;2.17;;;;;;;18.91;63.73;103307.63;4887000;29;20112;-86
2021/10/08 07:48:46;;;;;;;3.28;2.10;;;;;;;18.96;63.81;103312.97;4888832;29;20031;-82
2021/10/08 07:51:11;;;;;;;5.95;2.05;;;;;;;18.98;63.76;103313.00;4889252;29;20029;-85
2021/10/08 07:53:37;;;;;;;7.28;2.17;;;;;;;18.98;63.99;103313.00;4886875;29;20028;-86
2021/10/08 07:56:02;;;;;;;4.93;2.00;;;;;;;18.99;64.01;103318.28;4869551;29;20115;-88
2021/10/08 07:58:28;;;;;;;3.53;2.10;;;;;;;19.01;64.08;103318.28;4868262;29;20040;-88
2021/10/08 08:00:55;;;;;;;3.67;2.05;;;;;;;19.00;63.90;103317.41;4884053;29;20489;-87
2021/10/08 08:03:21;;;;;;;3.78;2.00;;;;;;;19.03;64.09;103313.97;4883714;29;20485;-88
2021/10/08 08:05:46;;;;;;;3.10;1.98;;;;;;;19.06;63.90;103321.91;4868455;29;20065;-87
2021/10/08 08:08:12;;;;;;;2.88;1.90;;;;;;;19.10;63.82;103324.63;4884865;29;20206;-85
2021/10/08 08:10:37;;;;;;;3.33;2.30;;;;;;;19.17;63.50;103324.78;4868528;29;20088;-88
2021/10/08 08:13:02;;;;;;;7.13;3.28;;;;;;;19.15;63.46;103319.50;4868041;29;20397;-87
2021/10/08 08:15:28;;;;;;;5.03;2.17;;;;;;;19.10;63.51;103315.91;4883541;29;20037;-87
2021/10/08 08:17:53;;;;;;;4.28;1.80;;;;;;;19.07;63.62;103326.25;4884350;29;20063;-86
2021/10/08 08:20:18;;;;;;;3.53;2.13;;;;;;;19.05;63.52;103323.66;4884193;29;20037;-86
2021/10/08 08:22:44;;;;;;;4.40;2.00;;;;;;;19.07;63.42;103328.88;4885101;29;20119;-87
2021/10/08 08:25:09;;;;;;;4.32;2.30;;;;;;;19.01;63.55;103328.72;4869244;29;20029;-86
2021/10/08 08:27:35;;;;;;;3.95;2.20;;;;;;;19.02;63.52;103330.50;4869579;29;20083;-87
2021/10/08 08:30:03;;;;;;;3.55;2.10;;;;;;;19.03;63.47;103327.94;4869866;29;20032;-87
2021/10/08 08:32:31;;;;;;;3.78;2.33;;;;;;;19.07;63.56;103328.88;4885202;29;20032;-88
2021/10/08 08:34:56;;;;;;;3.58;2.28;;;;;;;19.11;63.23;103331.59;4868549;29;20107;-88
2021/10/08 08:37:21;;;;;;;3.78;2.35;;;;;;;19.07;63.50;103337.59;4853178;29;20180;-86
2021/10/08 08:39:48;;;;;;;3.95;2.50;;;;;;;19.03;63.35;103329.66;4900767;29;20028;-86
2021/10/08 08:42:17;;;;;;;5.00;2.45;;;;;;;19.04;63.54;103340.13;4869508;29;20029;-86
2021/10/08 08:44:42;;;;;;;4.68;2.60;;;;;;;19.03;63.39;103333.16;4884582;29;20048;-86
2021/10/08 08:47:07;;;;;;;3.25;2.40;;;;;;;19.07;63.39;103340.19;4884038;29;20128;-86
2021/10/08 08:49:33;;;;;;;3.72;2.40;;;;;;;19.09;63.28;103335.88;4899205;29;20040;-88
2021/10/08 08:51:58;;;;;;;3.03;2.13;;;;;;;19.09;63.20;103333.28;4871432;29;20513;-87
2021/10/08 08:54:24;;;;;;;2.92;2.40;;;;;;;19.13;63.28;103341.19;4854897;29;20055;-86
2021/10/08 08:56:49;;;;;;;3.00;2.40;;;;;;;19.09;63.14;103335.88;4868103;29;20036;-89
2021/10/08 08:59:15;;;;;;;6.32;2.70;;;;;;;19.05;63.31;103339.31;4869759;29;20043;-91
2021/10/08 09:02:01;;;;;;;3.05;2.75;;;;;;;19.07;63.34;103342.78;4871796;29;20028;-86
2021/10/08 09:04:31;;;;;;;4.32;2.90;;;;;;;19.15;63.15;103342.13;4870646;29;20059;-85
2021/10/08 09:06:57;;;;;;;4.38;3.22;;;;;;;19.20;63.10;103338.75;4899870;29;20035;-87
2021/10/08 09:09:24;;;;;;;4.25;2.70;;;;;;;19.17;63.08;103348.25;4883099;29;20032;-86
2021/10/08 09:11:52;;;;;;;4.03;2.90;;;;;;;19.09;63.07;103338.50;4882252;29;20036;-85
2021/10/08 09:14:27;;;;;;;4.47;2.72;;;;;;;19.06;63.40;103343.66;4882102;29;20060;-85
2021/10/08 09:17:30;;;;;;;4.07;3.00;;;;;;;19.03;63.40;103343.59;4882378;29;20497;-85
2021/10/08 09:20:06;;;;;;;4.72;2.83;;;;;;;19.03;63.43;103342.69;4884069;29;20064;-87
2021/10/08 09:26:03;;;;;;;5.70;3.05;;;;;;;19.16;63.08;103341.25;4900977;29;20531;-88
2021/10/08 09:28:29;;;;;;;3.95;3.05;;;;;;;19.17;62.90;103337.81;4882885;29;20028;-89
2021/10/08 09:30:56;;;;;;;3.97;2.90;;;;;;;19.18;62.97;103335.22;4867093;29;20393;-87
2021/10/08 09:33:23;;;;;;;5.57;3.10;;;;;;;19.25;62.83;103334.53;4883139;29;20458;-87
2021/10/08 09:35:54;;;;;;;6.70;3.28;;;;;;;19.23;62.89;103333.63;4882160;29;20029;-87
2021/10/08 09:38:19;;;;;;;4.43;3.67;;;;;;;19.17;63.09;103336.09;4867651;29;20115;-87
2021/10/08 09:40:51;;;;;;;4.47;3.40;;;;;;;19.17;62.96;103327.38;4898990;29;20056;-86
2021/10/08 09:43:23;;;;;;;4.70;3.28;;;;;;;19.21;62.82;103329.22;4899085;29;20028;-88
2021/10/08 09:45:52;;;;;;;5.38;3.45;;;;;;;19.21;62.80;103327.50;4882809;29;20510;-86
2021/10/08 09:48:19;;;;;;;8.30;3.20;;;;;;;19.26;62.69;103320.63;4888247;29;20037;-87
2021/10/08 09:51:16;;;;;;;3.78;3.30;;;;;;;19.23;62.62;103325.78;4882685;29;20033;-87
2021/10/08 09:53:47;;;;;;;4.60;3.15;;;;;;;19.24;62.76;103326.66;4887223;29;20459;-87
2021/10/08 09:56:39;;;;;;;4.70;3.78;;;;;;;19.26;62.82;103325.84;4882996;29;20481;-87
2021/10/08 09:59:07;;;;;;;6.20;3.78;;;;;;;19.24;62.71;103327.53;4899240;29;20135;-88
2021/10/08 10:01:35;;;;;;;5.40;4.15;;;;;;;19.19;62.76;103334.41;4884546;29;20508;-87
2021/10/08 10:04:02;;;;;;;4.80;3.78;;;;;;;19.22;62.63;103337.06;4884394;29;20512;-86
2021/10/08 10:06:28;;;;;;;6.50;4.63;;;;;;;19.26;62.76;103335.41;4881984;29;20032;-86
2021/10/08 10:08:53;;;;;;;6.43;4.68;;;;;;;19.24;62.80;103335.38;4881841;29;20029;-86
2021/10/08 10:11:23;;;;;;;5.47;4.88;;;;;;;19.24;62.79;103342.34;4866572;29;20092;-86
2021/10/08 10:13:52;;;;;;;5.68;4.35;;;;;;;19.22;63.02;103333.59;4881978;29;20024;-85
2021/10/08 10:16:18;;;;;;;5.18;4.13;;;;;;;19.19;62.87;103334.41;4897398;29;20528;-86
2021/10/08 10:18:47;;;;;;;5.85;4.88;;;;;;;19.20;62.81;103336.16;4893929;29;20125;-85
2021/10/08 10:21:14;;;;;;;7.68;5.38;;;;;;;19.19;62.84;103337.00;4899246;29;20032;-89
2021/10/08 10:34:07;;;;;;;7.18;6.28;;;;;;;19.12;62.75;103335.09;4900881;29;20464;-89
2021/10/08 10:37:00;;;;;;;7.68;6.43;;;;;;;19.11;63.05;103331.59;4898523;29;20035;-88
2021/10/08 10:53:53;;;;;;;;;;;;;;;19.09;63.22;103324.56;4907889;29;20119;-88
2021/10/08 11:00:38;;;;;;;10.05;5.70;;;;;;;19.07;63.20;103319.31;4906015;29;20117;-87
2021/10/08 11:07:11;;;;;;;6.97;5.90;;;;;;;19.08;63.10;103321.09;4877847;29;20610;-86
2021/10/08 11:16:18;;;;;;;7.32;5.97;;;;;;;19.07;63.05;103311.47;4903459;29;20104;-86
2021/10/08 11:18:58;;;;;;;6.75;5.97;;;;;;;19.07;63.05;103314.09;4902164;29;20040;-86
2021/10/08 11:21:27;;;;;;;8.23;6.63;;;;;;;19.08;63.18;103313.25;4886008;29;20488;-85
2021/10/08 11:30:38;;;;;;;7.13;5.80;;;;;;;19.08;63.15;103310.66;4905610;29;20043;-85
2021/10/08 11:33:07;;;;;;;6.93;5.95;;;;;;;19.07;63.05;103301.03;4886352;29;20028;-86
2021/10/08 11:35:49;;;;;;;7.38;6.15;;;;;;;19.06;63.24;103296.69;4885993;29;20032;-87
2021/10/08 11:38:18;;;;;;;6.68;5.97;;;;;;;19.08;63.22;103292.38;4886183;29;20032;-87
2021/10/08 11:40:49;;;;;;;7.15;5.78;;;;;;;19.09;63.05;103290.66;4901785;29;20035;-86
2021/10/08 11:43:32;;;;;;;6.45;5.53;;;;;;;19.10;63.16;103289.81;4902249;29;20084;-87
2021/10/08 11:48:58;;;;;;;7.57;5.88;;;;;;;19.09;62.98;103283.69;4902746;29;20043;-86
2021/10/08 11:51:38;;;;;;;7.10;6.05;;;;;;;19.09;63.24;103281.09;4885985;29;20021;-86
2021/10/08 11:54:03;;;;;;;7.88;5.95;;;;;;;19.09;63.06;103275.88;4885777;29;20119;-86
2021/10/08 11:56:30;;;;;;;6.78;6.10;;;;;;;19.10;63.06;103277.66;4884287;29;20196;-87
2021/10/08 11:59:06;;;;;;;6.82;6.13;;;;;;;19.10;63.22;103277.66;4854199;29;20040;-86
2021/10/08 12:01:33;;;;;;;6.75;5.90;;;;;;;19.11;63.16;103275.91;4885082;29;20118;-87
2021/10/08 12:03:58;;;;;;;7.07;5.82;;;;;;;19.13;63.11;103273.34;4884250;29;20123;-86
2021/10/08 12:06:31;;;;;;;6.65;5.90;;;;;;;19.13;63.10;103271.59;4868905;29;20123;-88
2021/10/08 12:09:35;;;;;;;7.13;5.30;;;;;;;19.14;63.04;103269.88;4870157;29;20033;-86
2021/10/08 12:18:55;;;;;;;5.45;4.93;;;;;;;19.14;63.02;103259.44;4903115;29;20089;-87
2021/10/08 12:21:37;;;;;;;6.28;5.57;;;;;;;19.15;63.12;103256.00;4885105;29;20033;-87
2021/10/08 12:24:22;;;;;;;7.05;5.55;;;;;;;19.17;63.09;103256.91;4912093;29;20031;-88
2021/10/08 12:26:58;;;;;;;6.57;5.88;;;;;;;19.16;63.10;103256.00;4912851;29;20028;-86
2021/10/08 12:29:24;;;;;;;6.82;5.82;;;;;;;19.16;63.00;103250.78;4907881;29;20025;-88
2021/10/08 12:31:57;;;;;;;5.97;4.97;;;;;;;19.17;62.93;103251.69;4891576;29;20397;-86
2021/10/08 12:35:12;;;;;;;6.53;5.30;;;;;;;19.19;62.99;103252.59;4888360;29;20036;-86
2021/10/08 12:37:48;;;;;;;6.68;5.53;;;;;;;19.18;62.94;103250.81;4872999;29;20032;-87
2021/10/08 12:40:25;;;;;;;8.95;5.53;;;;;;;19.17;63.00;103242.13;4887154;29;20080;-90
2021/10/08 12:42:54;;;;;;;5.90;5.20;;;;;;;19.19;62.90;103244.78;4870139;29;20036;-87
2021/10/08 12:45:33;;;;;;;6.93;5.70;;;;;;;19.20;62.88;103244.78;4885886;29;20024;-86
2021/10/08 12:47:59;;;;;;;6.38;5.47;;;;;;;19.19;63.01;103237.81;4897246;29;20040;-87
2021/10/08 12:54:26;;;;;;;6.47;5.47;;;;;;;19.23;62.93;103238.78;4903002;29;20079;-89
2021/10/08 12:57:11;;;;;;;6.22;5.50;;;;;;;19.23;62.85;103229.22;4885164;29;20036;-88
2021/10/08 12:59:56;;;;;;;6.00;5.40;;;;;;;19.26;62.90;103233.59;4900325;29;20488;-88
2021/10/08 13:33:15;;;;;;;5.45;4.82;;;;;;;19.29;62.86;103212.78;4770622;30;20118;-86
2021/10/08 13:42:24;;;;;;;5.68;5.10;;;;;;;19.30;62.54;103204.13;4820270;29;20064;-86
2021/10/08 13:52:15;;;;;;;5.80;5.30;;;;;;;19.31;62.94;103200.63;4897141;29;20132;-87
2021/10/08 13:58:22;;;;;;;6.13;5.47;;;;;;;19.34;62.74;103192.88;4900980;29;20035;-88
2021/10/08 14:00:50;;;;;;;5.78;5.15;;;;;;;19.33;62.78;103196.31;4882221;29;20599;-88
2021/10/08 14:12:38;;;;;;;5.97;5.30;;;;;;;19.35;62.71;103188.53;4893359;29;20405;-87
2021/10/08 14:15:04;;;;;;;5.70;5.20;;;;;;;19.36;62.67;103188.56;4873596;29;20024;-87
2021/10/08 14:17:30;;;;;;;6.25;5.18;;;;;;;19.36;62.66;103182.44;4850195;29;20131;-89
2021/10/08 14:19:55;;;;;;;5.93;5.32;;;;;;;19.35;62.79;103181.56;4852436;29;20037;-90
2021/10/08 14:22:21;;;;;;;5.25;4.75;;;;;;;19.40;62.78;103182.56;4885124;29;20033;-89
2021/10/08 14:24:47;;;;;;;5.40;4.90;;;;;;;19.45;62.60;103178.31;4867426;29;20029;-86
2021/10/08 14:27:15;;;;;;;5.57;4.75;;;;;;;19.41;62.75;103175.63;4878431;29;20060;-87
2021/10/08 14:29:54;;;;;;;5.45;4.55;;;;;;;19.42;62.60;103177.34;4854489;29;20029;-86
2021/10/08 14:32:19;;;;;;;6.78;5.68;;;;;;;19.42;62.46;103173.00;4869627;29;20061;-85
2021/10/08 14:34:45;;;;;;;7.95;5.20;;;;;;;19.41;62.75;103165.16;4867724;29;20127;-86
2021/10/08 14:37:26;;;;;;;5.32;4.82;;;;;;;19.42;62.68;103162.56;4864406;29;20036;-86
2021/10/08 14:40:44;;;;;;;6.07;4.90;;;;;;;19.40;62.64;103169.53;4851506;29;20173;-87
2021/10/08 14:43:13;;;;;;;6.15;5.30;;;;;;;19.39;62.62;103165.13;4865301;29;20040;-88
2021/10/08 14:45:45;;;;;;;5.93;4.97;;;;;;;19.38;62.70;103165.09;4851462;29;20033;-87
2021/10/08 14:48:38;;;;;;;7.15;5.38;;;;;;;19.38;62.62;103168.59;4871189;29;20105;-85
2021/10/08 14:57:57;;;;;;;7.28;5.43;;;;;;;19.38;62.66;103163.38;4900217;29;20131;-87
2021/10/08 15:01:10;;;;;;;7.15;4.82;;;;;;;19.38;62.59;103158.16;4854390;29;20104;-87
2021/10/08 15:04:29;;;;;;;5.20;4.63;;;;;;;19.38;62.71;103150.31;4869155;29;20099;-86
2021/10/08 15:13:38;;;;;;;5.88;5.28;;;;;;;19.36;62.49;103156.34;4884716;29;20040;-87
2021/10/08 15:16:04;;;;;;;5.57;5.03;;;;;;;19.36;62.77;103153.72;4868385;29;20029;-85
2021/10/08 15:22:19;;;;;;;6.00;4.70;;;;;;;19.34;62.84;103148.50;4889635;29;20074;-87
2021/10/08 15:24:45;;;;;;;6.05;5.45;;;;;;;19.33;62.63;103157.16;4868292;29;20067;-86
2021/10/08 15:27:12;;;;;;;4.90;4.50;;;;;;;19.32;62.56;103144.97;4851503;29;20068;-87
2021/10/08 15:29:38;;;;;;;6.80;4.80;;;;;;;19.31;62.65;103145.81;4868114;29;20037;-87
2021/10/08 15:32:18;;;;;;;6.32;5.28;;;;;;;19.34;62.81;103151.13;4884883;29;20156;-87
2021/10/08 15:34:44;;;;;;;7.65;5.20;;;;;;;19.32;62.77;103150.19;4879650;29;20131;-88
2021/10/08 15:37:12;;;;;;;6.78;5.00;;;;;;;19.33;63.10;103149.34;4884251;29;20128;-87
2021/10/08 15:39:38;;;;;;;6.88;5.13;;;;;;;19.31;62.85;103146.72;4883718;29;20084;-85
2021/10/08 15:42:03;;;;;;;7.43;4.68;;;;;;;19.29;62.88;103145.81;4892340;29;20036;-86
2021/10/08 15:44:28;;;;;;;7.78;4.60;;;;;;;19.27;63.03;103137.06;4868210;29;20032;-86
2021/10/08 15:46:57;;;;;;;5.22;4.70;;;;;;;19.26;63.08;103140.50;4884565;29;20077;-86
2021/10/08 15:49:40;;;;;;;7.72;5.07;;;;;;;19.26;62.94;103143.13;4884662;29;20079;-87
2021/10/08 15:52:21;;;;;;;5.63;5.13;;;;;;;19.27;63.09;103144.88;4870980;29;20382;-87
2021/10/08 15:55:09;;;;;;;9.25;5.97;;;;;;;19.26;62.99;103142.25;4881648;29;20049;-86
2021/10/08 15:58:04;;;;;;;9.18;5.20;;;;;;;19.24;62.99;103142.19;4869041;29;20397;-86
2021/10/08 16:00:33;;;;;;;6.15;5.30;;;;;;;19.23;63.09;103143.06;4853904;29;20064;-86
2021/10/08 16:03:19;;;;;;;5.70;5.07;;;;;;;19.26;62.99;103144.84;4836809;29;20048;-88
2021/10/08 16:05:45;;;;;;;6.45;5.22;;;;;;;19.27;62.88;103143.97;4842231;29;20070;-89
2021/10/08 16:08:10;;;;;;;5.15;4.65;;;;;;;19.26;62.96;103145.72;4814563;29;20084;-88
2021/10/08 16:10:38;;;;;;;6.47;5.30;;;;;;;19.27;63.09;103143.97;4815082;29;20495;-85
2021/10/08 16:13:05;;;;;;;5.93;5.32;;;;;;;19.28;63.12;103138.81;4834182;29;20069;-87
2021/10/08 16:18:58;;;;;;;5.97;5.00;;;;;;;19.24;63.21;103139.59;4852925;29;20090;-82
2021/10/08 16:21:25;;;;;;;6.50;5.10;;;;;;;19.26;63.45;103144.84;4831161;29;20436;-84
2021/10/08 16:23:51;;;;;;;5.90;5.20;;;;;;;19.25;63.67;103145.69;4825025;29;20073;-87
2021/10/08 16:26:19;;;;;;;5.78;5.10;;;;;;;19.25;63.88;103148.28;4827609;29;20447;-85
2021/10/08 16:28:47;;;;;;;7.03;5.68;;;;;;;19.25;63.92;103148.28;4835614;29;20049;-87
2021/10/08 16:31:13;;;;;;;8.65;5.25;;;;;;;19.22;63.91;103146.50;4830420;29;20455;-87
2021/10/08 16:33:39;;;;;;;7.95;5.50;;;;;;;19.23;63.91;103143.06;4821794;29;20086;-84
2021/10/08 16:36:10;;;;;;;6.28;5.68;;;;;;;19.24;64.20;103154.38;4876284;29;20045;-85
2021/10/08 16:38:36;;;;;;;7.35;5.13;;;;;;;19.25;64.31;103158.72;4892541;29;20120;-86
2021/10/08 16:41:02;;;;;;;6.43;5.32;;;;;;;19.24;64.46;103157.88;4870563;29;20021;-87
2021/10/08 16:43:27;;;;;;;8.80;6.15;;;;;;;19.23;64.53;103152.63;4883175;29;20024;-86
2021/10/08 16:45:52;;;;;;;14.40;8.82;;;;;;;19.23;64.72;103158.72;4863724;29;20033;-85
2021/10/08 16:48:19;;;;;;;16.05;8.45;;;;;;;19.22;64.51;103156.06;4864251;29;20029;-84
2021/10/08 16:50:44;;;;;;;16.58;8.50;;;;;;;19.25;64.42;103161.34;4858484;29;20430;-87
2021/10/08 16:53:11;;;;;;;17.23;9.48;;;;;;;19.25;64.64;103167.47;4848927;29;20037;-86
2021/10/08 16:55:36;;;;;;;19.10;9.77;;;;;;;19.25;64.44;103163.94;4853665;29;20044;-86
2021/10/08 16:58:02;;;;;;;21.27;10.38;;;;;;;19.23;64.67;103166.56;4867457;29;20032;-84
2021/10/08 17:00:27;;;;;;;18.08;9.68;;;;;;;19.22;64.80;103167.38;4882760;29;20040;-84
2021/10/08 17:02:53;;;;;;;19.80;9.65;;;;;;;19.22;64.71;103169.13;4870899;29;20351;-86
2021/10/08 17:05:19;;;;;;;22.65;9.82;;;;;;;19.20;64.67;103163.88;4881085;29;20069;-87
2021/10/08 17:07:44;;;;;;;18.85;10.52;;;;;;;19.19;64.93;103175.16;4848938;29;20059;-85
2021/10/08 17:10:10;;;;;;;22.98;11.10;;;;;;;19.18;64.61;103173.38;4837697;29;20123;-86
2021/10/08 17:12:36;;;;;;;23.95;11.15;;;;;;;19.18;64.82;103175.13;4866962;29;20033;-85
2021/10/08 17:15:01;;;;;;;19.05;10.60;;;;;;;19.18;64.95;103176.00;4843402;29;20127;-82
2021/10/08 17:17:27;;;;;;;26.52;11.82;;;;;;;19.18;64.81;103175.13;4866757;29;20080;-81
2021/10/08 17:19:53;;;;;;;32.67;13.25;;;;;;;19.16;64.84;103172.47;4856531;29;20032;-83
2021/10/08 17:22:20;;;;;;;27.45;13.23;;;;;;;19.15;64.63;103175.94;4866627;29;20040;-82
2021/10/08 17:24:53;;;;;;;24.88;12.32;;;;;;;19.15;64.88;103182.91;4878239;29;20028;-83
2021/10/08 17:34:53;;;;;;;32.42;14.85;;;;;;;19.13;64.89;103187.22;4891804;29;20043;-83
2021/10/08 17:37:19;;;;;;;31.35;14.93;;;;;;;19.12;64.55;103186.34;4877048;29;20040;-79
2021/10/08 17:39:44;;;;;;;36.65;15.20;;;;;;;19.13;64.63;103182.88;4861858;29;20135;-84
2021/10/08 17:42:11;;;;;;;32.97;15.82;;;;;;;19.14;64.52;103188.97;4883481;29;20462;-83
2021/10/08 17:44:36;;;;;;;32.25;14.98;;;;;;;19.10;64.59;103188.91;4875936;29;20123;-82
2021/10/08 17:47:02;;;;;;;33.97;15.57;;;;;;;19.11;64.65;103189.78;4861230;29;20057;-82
2021/10/08 17:49:27;;;;;;;33.90;15.50;;;;;;;19.09;64.64;103186.25;4858951;29;20071;-83
2021/10/08 17:51:53;;;;;;;31.48;15.50;;;;;;;19.08;64.64;103177.56;4872858;29;20036;-81
2021/10/08 17:54:18;;;;;;;33.88;15.98;;;;;;;19.08;64.50;103180.16;4849558;29;20049;-80
2021/10/08 17:56:44;;;;;;;33.90;14.70;;;;;;;19.07;64.59;103183.59;4849880;29;20481;-86
2021/10/08 17:59:10;;;;;;;33.33;14.75;;;;;;;19.07;64.57;103190.56;4908251;29;20047;-84
2021/10/08 18:01:36;;;;;;;33.88;15.10;;;;;;;19.08;64.98;103193.22;4857158;29;20033;-82
2021/10/08 18:04:05;;;;;;;41.78;17.08;;;;;;;19.08;64.88;103190.59;4876277;29;20036;-88
2021/10/08 18:06:31;;;;;;;40.70;16.30;;;;;;;19.08;64.77;103192.34;4881660;29;20084;-82
2021/10/08 18:08:56;;;;;;;36.42;16.52;;;;;;;19.08;64.81;103193.22;4895491;29;20052;-87
2021/10/08 18:11:22;;;;;;;34.53;15.63;;;;;;;19.09;64.86;103189.72;4872267;29;20037;-86
2021/10/08 18:13:48;;;;;;;34.53;16.67;;;;;;;19.09;64.82;103189.72;4856829;29;20029;-85
2021/10/08 18:16:16;;;;;;;36.22;16.73;;;;;;;19.09;65.07;103188.88;4881549;29;20111;-84
2021/10/08 18:18:42;;;;;;;29.90;16.05;;;;;;;19.08;64.88;103192.34;4891726;29;20030;-85
2021/10/08 18:21:08;;;;;;;34.03;16.60;;;;;;;19.07;65.07;103196.66;4890806;29;20072;-85